createdAt,value
2023-04-02T00:03:26.195Z,1017.2254074491011
2023-04-02T00:09:45.451Z,1017.3537716577401
2023-04-02T00:16:05.176Z,1017.4977887346978
2023-04-02T00:22:23.954Z,1017.6145492869515
2023-04-02T00:28:42.825Z,1017.7058842849736
2023-04-02T00:35:01.873Z,1017.8063437659578
2023-04-02T00:41:20.376Z,1017.9140456410839
2023-04-02T00:52:04.164Z,1018.0935930845641
2023-04-02T00:58:23.991Z,1018.1716435177843
2023-04-02T01:09:47.786Z,1018.2498048437311
2023-04-02T01:16:05.776Z,1018.3050662010612
2023-04-02T01:23:18.889Z,1018.3574091852623
2023-04-02T01:29:38.666Z,1018.4683892162241
2023-04-02T01:38:03.868Z,1018.6489931762255
2023-04-02T01:44:22.960Z,1018.7699727100143
2023-04-02T01:50:41.944Z,1018.919039674317
2023-04-02T01:57:01.027Z,1019.0347401138257
2023-04-02T02:03:20.196Z,1019.134638789002
2023-04-02T02:20:13.404Z,1019.3677990459867
2023-04-02T02:26:36.495Z,1019.5052612225189
2023-04-02T02:32:56.788Z,1019.6255911091318
2023-04-02T02:39:15.804Z,1019.7622878518075
2023-04-02T02:48:05.275Z,1019.9590457595549
2023-04-02T02:54:23.715Z,1020.0873793639877
2023-04-02T03:00:46.511Z,1020.147944551599
2023-04-02T03:12:39.813Z,1020.326348474804
2023-04-02T03:18:59.840Z,1020.4157858429888
2023-04-02T03:25:19.138Z,1020.4943318238751
2023-04-02T03:31:38.658Z,1020.5789144688541
2023-04-02T03:37:58.786Z,1020.6639446134989
2023-04-02T03:44:18.220Z,1020.8081130455059
2023-04-02T03:50:36.947Z,1020.9398394722928
2023-04-02T03:58:13.838Z,1021.0745018478666
2023-04-02T04:04:34.519Z,1021.1982674380948
2023-04-02T04:14:51.416Z,1021.3902211770585
2023-04-02T04:21:10.853Z,1021.5024170699645
2023-04-02T04:27:29.722Z,1021.6307795641161
2023-04-02T04:33:48.472Z,1021.7768620107981
2023-04-02T04:40:07.644Z,1021.8958898902275
2023-04-02T04:50:36.896Z,1022.0532351030557
2023-04-02T04:59:41.566Z,1022.2073101337005
2023-04-02T05:06:00.160Z,1022.3148020032165
2023-04-02T05:12:20.230Z,1022.4705782944677
2023-04-02T05:18:41.445Z,1022.6239766723427
2023-04-02T05:25:03.308Z,1022.7556187959146
2023-04-02T05:33:16.302Z,1022.9084178306728
2023-04-02T05:39:38.030Z,1023.0409895862059
2023-04-02T05:45:59.258Z,1023.1614997924211
2023-04-02T05:52:19.775Z,1023.2716112452856
2023-04-02T05:59:51.207Z,1023.4271157665281
2023-04-02T06:06:14.579Z,1023.5486466229061
2023-04-02T06:12:35.887Z,1023.6672757463483
2023-04-02T06:18:58.212Z,1023.7241154189934
2023-04-02T06:25:19.616Z,1023.8334677647834
2023-04-02T06:31:50.694Z,1024.0204526136235
2023-04-02T06:43:54.908Z,1024.2449040853849
2023-04-02T06:50:16.756Z,1024.307284742558
2023-04-02T06:56:38.832Z,1024.333286602825
2023-04-02T07:03:02.901Z,1024.3921291867202
2023-04-02T07:09:27.898Z,1024.5102142762341
2023-04-02T07:15:50.978Z,1024.643914014615
2023-04-02T07:22:14.187Z,1024.8108895979926
2023-04-02T07:28:36.802Z,1024.9199001607612
2023-04-02T07:41:20.826Z,1025.0682873838932
2023-04-02T07:47:42.033Z,1025.1522975120765
2023-04-02T07:54:03.005Z,1025.1939379627095
2023-04-02T08:00:24.312Z,1025.2722033245348
2023-04-02T08:06:46.299Z,1025.3684369517216
2023-04-02T08:13:07.401Z,1025.4579402047234
2023-04-02T08:19:28.203Z,1025.5576908038881
2023-04-02T08:31:22.293Z,1025.8971663507393
2023-04-02T08:37:43.365Z,1025.9779655246023
2023-04-02T08:44:04.728Z,1025.9831769266957
2023-04-02T08:50:24.394Z,1026.077622222835
2023-04-02T08:59:51.183Z,1026.2559637342702
2023-04-02T09:06:10.613Z,1026.342839053487
2023-04-02T09:12:30.827Z,1026.3356475912883
2023-04-02T09:18:52.482Z,1026.3990981300294
2023-04-02T09:29:45.017Z,1026.4182299984031
2023-04-02T09:37:00.733Z,1026.4784896266299
2023-04-02T09:43:21.782Z,1026.5905619618256
2023-04-02T09:49:51.475Z,1026.682602543474
2023-04-02T10:00:48.316Z,1026.7624917590929
2023-04-02T10:07:09.632Z,1026.8297188561646
2023-04-02T10:13:31.229Z,1026.8660301878413
2023-04-02T10:20:00.010Z,1026.9324199054215
2023-04-02T10:26:29.543Z,1026.9866114961249
2023-04-02T10:33:10.230Z,1027.1259143042141
2023-04-02T10:39:40.045Z,1027.2622355774058
2023-04-02T10:46:04.242Z,1027.2740999626133
2023-04-02T10:52:25.734Z,1027.2535354866245
2023-04-02T10:58:47.068Z,1027.2824712180293
2023-04-02T11:07:31.015Z,1027.457689826105
2023-04-02T11:16:44.019Z,1027.5182176180945
2023-04-02T11:23:06.034Z,1027.601962172591
2023-04-02T11:29:27.393Z,1027.6816053165337
2023-04-02T11:35:48.959Z,1027.7716977919854
2023-04-02T11:42:10.641Z,1027.6868385644257
2023-04-02T11:54:49.360Z,1027.7459058637032
2023-04-02T12:01:10.041Z,1027.7448289995593
2023-04-02T12:07:30.508Z,1027.8358836881114
2023-04-02T12:13:51.708Z,1027.8885741011063
2023-04-02T12:24:00.814Z,1027.915691738813
2023-04-02T12:30:20.897Z,1028.0429906261609
2023-04-02T12:45:00.664Z,1028.1991811304229
2023-04-02T12:51:21.248Z,1028.2222757859865
2023-04-02T13:02:05.253Z,1028.2891832989935
2023-04-02T13:12:48.035Z,1028.2539655063656
2023-04-02T13:19:08.268Z,1028.2349672513762
2023-04-02T13:25:27.738Z,1028.3365752214818
2023-04-02T13:31:48.098Z,1028.4376095303037
2023-04-02T13:38:07.954Z,1028.5018348084486
2023-04-02T13:44:27.784Z,1028.480004429789
2023-04-02T13:50:47.696Z,1028.4938471937858
2023-04-02T13:57:07.663Z,1028.5202893378898
2023-04-02T14:05:21.080Z,1028.4518681465406
2023-04-02T14:11:40.948Z,1028.5209040993325
2023-04-02T14:20:43.639Z,1028.5694485206618
2023-04-02T14:27:04.287Z,1028.6582749278496
2023-04-02T14:33:24.130Z,1028.6995685989339
2023-04-02T14:39:43.809Z,1028.763654266953
2023-04-02T14:48:56.302Z,1028.8184111584255
2023-04-02T14:55:16.402Z,1028.8046977808829
2023-04-02T15:01:36.858Z,1028.890006213774
2023-04-02T15:07:56.828Z,1028.911624713605
2023-04-02T15:14:17.398Z,1028.9532886588026
2023-04-02T15:20:36.633Z,1029.0981216505256
2023-04-02T15:26:56.166Z,1029.1321346593254
2023-04-02T15:33:15.747Z,1029.1876872144287
2023-04-02T15:39:34.938Z,1029.248927654349
2023-04-02T15:45:54.363Z,1029.2851819170844
2023-04-02T15:52:14.732Z,1029.3686765008913
2023-04-02T16:00:04.643Z,1029.4319952833287
2023-04-02T16:13:10.771Z,1029.6498528098994
2023-04-02T16:19:30.780Z,1029.6676472491604
2023-04-02T16:25:50.724Z,1029.7708039838103
2023-04-02T16:32:12.683Z,1029.9080868550352
2023-04-02T16:38:32.352Z,1030.0049477689133
2023-04-02T16:44:52.921Z,1030.102597427323
2023-04-02T16:51:14.238Z,1030.2553855335352
2023-04-02T16:57:35.514Z,1030.404236953973
2023-04-02T17:04:00.966Z,1030.5271818255796
2023-04-02T17:17:54.899Z,1030.764837714626
2023-04-02T17:24:16.618Z,1030.8318404712472
2023-04-02T17:30:38.441Z,1030.9189281018043
2023-04-02T17:37:00.347Z,1030.9583903485347
2023-04-02T17:43:21.744Z,1031.0874672942018
2023-04-02T17:49:43.464Z,1031.1808280161274
2023-04-02T17:58:41.888Z,1031.346542850978
2023-04-02T18:05:04.231Z,1031.4712398642246
2023-04-02T18:11:23.348Z,1031.6226634958678
2023-04-02T18:17:42.481Z,1031.7029253603405
2023-04-02T18:24:01.902Z,1031.821979183246
2023-04-02T18:34:55.601Z,1031.9500732393456
2023-04-02T18:41:15.022Z,1032.0797758852991
2023-04-02T18:47:33.888Z,1032.176365015049
2023-04-02T18:53:53.284Z,1032.298874610141
2023-04-02T19:00:13.706Z,1032.4260463620783
2023-04-02T19:06:33.337Z,1032.5298939526458
2023-04-02T19:20:16.981Z,1032.7479132757628
2023-04-02T19:26:36.227Z,1032.8091151409633
2023-04-02T19:32:56.660Z,1032.8615363703952
2023-04-02T19:39:16.273Z,1032.9510600436229
2023-04-02T19:45:36.327Z,1033.0500390614231
2023-04-02T19:51:56.576Z,1033.130006919138
2023-04-02T20:08:15.745Z,1033.3287841520364
2023-04-02T20:14:37.007Z,1033.4233213776477
2023-04-02T20:20:57.815Z,1033.4595894916058
2023-04-02T20:27:17.725Z,1033.5565271819335
2023-04-02T20:33:38.151Z,1033.662636163017
2023-04-02T20:39:59.139Z,1033.7132645147042
2023-04-02T20:51:21.043Z,1033.8378479145772
2023-04-02T20:57:41.858Z,1033.935450909933
2023-04-02T21:04:01.720Z,1034.0649115011404
2023-04-02T21:10:22.975Z,1034.2023687509375
2023-04-02T21:16:44.782Z,1034.2958426571358
2023-04-02T21:23:05.319Z,1034.3535367463537
2023-04-02T21:29:26.752Z,1034.3725386051224
2023-04-02T21:41:14.272Z,1034.4608212828932
2023-04-02T21:47:35.308Z,1034.5498459029761
2023-04-02T21:53:55.504Z,1034.5937375626493
2023-04-02T22:00:16.453Z,1034.6100716068677
2023-04-02T22:06:36.707Z,1034.662853518327
2023-04-02T22:12:56.808Z,1034.7104621792007
2023-04-02T22:20:30.032Z,1034.8097233748033
2023-04-02T22:26:51.187Z,1034.8634456263685
2023-04-02T22:33:11.898Z,1034.9379167982656
2023-04-02T22:44:58.532Z,1035.0267440443902
2023-04-02T22:51:18.850Z,1035.0794485472998
2023-04-02T22:57:39.346Z,1035.1427111840687
2023-04-02T23:03:59.240Z,1035.2125772985414
2023-04-02T23:10:21.436Z,1035.3050296906656
2023-04-02T23:16:41.361Z,1035.3815246783352
2023-04-02T23:23:02.953Z,1035.4432606605722
2023-04-02T23:29:22.940Z,1035.5060986017127
2023-04-02T23:35:42.743Z,1035.532084419332
2023-04-02T23:42:03.729Z,1035.565061001105
2023-04-02T23:48:22.792Z,1035.6119482885035
2023-04-02T23:54:42.842Z,1035.6431977356121
